createdAt,value
2019-01-16T00:01:54.254Z,55.55
2019-01-16T00:04:38.772Z,56.85
2019-01-16T00:07:24.932Z,55.48
2019-01-16T00:09:54.880Z,57.28
2019-01-16T00:12:24.800Z,58.07
2019-01-16T00:14:57.445Z,57.29
2019-01-16T00:17:32.857Z,57.49
2019-01-16T00:20:02.781Z,56.61
2019-01-16T00:22:38.350Z,55.46
2019-01-16T00:25:17.514Z,56.73
2019-01-16T00:27:49.927Z,57.30
2019-01-16T00:30:35.782Z,56.65
2019-01-16T00:33:08.450Z,57.55
2019-01-16T00:35:38.361Z,58.25
2019-01-16T00:38:17.174Z,57.62
2019-01-16T00:40:55.950Z,56.50
2019-01-16T00:43:37.989Z,56.76
2019-01-16T00:46:10.650Z,57.33
2019-01-16T00:48:46.632Z,58.11
2019-01-16T00:51:34.313Z,58.63
2019-01-16T00:54:16.338Z,57.20
2019-01-16T00:56:46.257Z,57.77
2019-01-16T00:59:22.089Z,56.96
2019-01-16T01:01:51.969Z,57.29
2019-01-16T01:04:36.842Z,56.48
2019-01-16T01:07:18.566Z,56.85
2019-01-16T01:09:48.521Z,57.29
2019-01-16T01:12:18.445Z,57.82
2019-01-16T01:14:53.974Z,56.92
2019-01-16T01:17:38.880Z,56.15
2019-01-16T01:20:18.232Z,56.00
2019-01-16T01:22:59.965Z,55.39
2019-01-16T01:25:47.888Z,55.11
2019-01-16T01:28:20.641Z,55.28
2019-01-16T01:31:05.695Z,55.05
2019-01-16T01:33:35.704Z,55.72
2019-01-16T01:36:05.631Z,55.21
2019-01-16T01:38:47.431Z,55.14
2019-01-16T01:41:33.153Z,53.73
2019-01-16T01:44:09.230Z,53.03
2019-01-16T01:46:42.255Z,54.44
2019-01-16T01:49:20.932Z,54.38
2019-01-16T01:52:08.473Z,53.76
2019-01-16T01:54:47.529Z,54.18
2019-01-16T01:57:26.575Z,52.82
2019-01-16T01:59:56.532Z,53.02
2019-01-16T02:02:41.272Z,51.86
2019-01-16T02:05:20.133Z,51.48
2019-01-16T02:07:58.793Z,50.90
2019-01-16T02:10:40.333Z,52.36
2019-01-16T02:13:22.392Z,52.57
2019-01-16T02:15:52.344Z,52.18
2019-01-16T02:18:25.246Z,51.55
2019-01-16T02:21:11.139Z,51.64
2019-01-16T02:23:41.124Z,52.15
2019-01-16T02:26:19.943Z,51.92
2019-01-16T02:29:05.627Z,52.59
2019-01-16T02:31:51.529Z,52.81
2019-01-16T02:34:30.182Z,52.09
2019-01-16T02:37:08.700Z,50.89
2019-01-16T02:39:54.269Z,50.01
2019-01-16T02:42:42.513Z,50.69
2019-01-16T02:45:24.262Z,51.09
2019-01-16T02:47:56.785Z,50.15
2019-01-16T02:50:26.713Z,50.32
2019-01-16T02:52:59.335Z,50.61
2019-01-16T02:55:29.291Z,48.96
2019-01-16T02:57:59.211Z,49.59
2019-01-16T03:00:32.061Z,49.74
2019-01-16T03:03:04.708Z,50.90
2019-01-16T03:05:40.875Z,49.78
2019-01-16T03:08:22.800Z,50.14
2019-01-16T03:10:52.724Z,50.49
2019-01-16T03:13:28.397Z,49.52
2019-01-16T03:15:58.305Z,49.91
2019-01-16T03:18:28.224Z,49.63
2019-01-16T03:20:58.187Z,49.85
2019-01-16T03:23:28.110Z,50.76
2019-01-16T03:26:00.471Z,50.42
2019-01-16T03:28:36.472Z,50.04
2019-01-16T03:31:21.327Z,49.46
2019-01-16T03:33:51.291Z,51.42
2019-01-16T03:36:26.895Z,48.89
2019-01-16T03:39:11.977Z,49.69
2019-01-16T03:41:56.506Z,49.28
2019-01-16T03:44:32.358Z,49.17
2019-01-16T03:47:02.361Z,49.77
2019-01-16T03:49:34.962Z,50.25
2019-01-16T03:52:04.919Z,49.70
2019-01-16T03:54:50.849Z,48.37
2019-01-16T03:57:36.711Z,50.06
2019-01-16T04:00:18.702Z,51.06
2019-01-16T04:03:04.564Z,50.94
2019-01-16T04:05:43.550Z,50.03
2019-01-16T04:08:13.494Z,49.47
2019-01-16T04:10:46.333Z,49.21
2019-01-16T04:13:22.553Z,50.61
2019-01-16T04:16:08.656Z,50.34
2019-01-16T04:18:44.443Z,50.19
2019-01-16T04:21:23.291Z,49.96
2019-01-16T04:23:53.446Z,49.69
2019-01-16T04:26:28.956Z,49.41
2019-01-16T04:28:58.928Z,50.32
2019-01-16T04:31:37.882Z,50.04
2019-01-16T04:34:23.916Z,50.54
2019-01-16T04:36:53.862Z,49.69
2019-01-16T04:39:23.796Z,49.39
2019-01-16T04:42:02.760Z,48.85
2019-01-16T04:44:35.524Z,48.41
2019-01-16T04:47:05.591Z,47.26
2019-01-16T04:49:38.676Z,47.35
2019-01-16T04:52:24.812Z,48.29
2019-01-16T04:54:54.768Z,46.08
2019-01-16T04:57:24.793Z,47.57
2019-01-16T04:59:54.777Z,48.33
2019-01-16T05:02:30.299Z,46.58
2019-01-16T05:05:00.285Z,46.58
2019-01-16T05:07:33.266Z,47.81
2019-01-16T05:10:06.388Z,46.29
2019-01-16T05:12:51.278Z,47.09
2019-01-16T05:15:23.994Z,47.09
2019-01-16T05:17:54.075Z,47.03
2019-01-16T05:20:24.136Z,46.78
2019-01-16T05:23:12.057Z,46.65
2019-01-16T05:25:51.098Z,47.15
2019-01-16T05:28:21.056Z,47.50
2019-01-16T05:31:02.832Z,47.16
2019-01-16T05:33:35.477Z,46.95
2019-01-16T05:36:05.521Z,47.90
2019-01-16T05:38:38.211Z,47.17
2019-01-16T05:41:23.914Z,47.69
2019-01-16T05:44:10.055Z,47.11
2019-01-16T05:46:48.915Z,47.95
2019-01-16T05:49:18.918Z,46.64
2019-01-16T05:52:03.898Z,45.59
2019-01-16T05:54:36.738Z,46.05
2019-01-16T05:57:09.196Z,47.88
2019-01-16T05:59:41.853Z,46.07
2019-01-16T06:02:11.775Z,45.52
2019-01-16T06:04:56.625Z,45.83
2019-01-16T06:07:42.428Z,45.55
2019-01-16T06:10:20.047Z,46.22
2019-01-16T06:13:07.976Z,45.54
2019-01-16T06:15:52.784Z,45.01
2019-01-16T06:18:22.743Z,44.21
2019-01-16T06:20:58.718Z,45.58
2019-01-16T06:23:28.638Z,45.41
2019-01-16T06:26:14.482Z,44.84
2019-01-16T06:28:44.475Z,43.89
2019-01-16T06:31:16.941Z,44.45
2019-01-16T06:33:52.900Z,44.50
2019-01-16T06:36:39.149Z,45.01
2019-01-16T06:39:10.135Z,44.21
2019-01-16T06:41:56.019Z,44.58
2019-01-16T06:44:34.860Z,43.65
2019-01-16T06:47:04.792Z,44.87
2019-01-16T06:49:37.452Z,44.38
2019-01-16T06:52:10.360Z,44.71
2019-01-16T06:54:58.089Z,44.48
2019-01-16T06:57:33.585Z,42.92
2019-01-16T07:00:15.660Z,43.80
2019-01-16T07:03:01.515Z,43.70
2019-01-16T07:05:43.357Z,44.58
2019-01-16T07:08:15.978Z,44.64
2019-01-16T07:10:45.894Z,43.33
2019-01-16T07:13:31.572Z,42.66
2019-01-16T07:16:06.995Z,43.40
2019-01-16T07:18:42.831Z,43.87
2019-01-16T07:21:27.612Z,43.53
2019-01-16T07:24:12.131Z,44.46
2019-01-16T07:27:00.187Z,43.82
2019-01-16T07:29:30.136Z,44.01
2019-01-16T07:32:00.114Z,44.26
2019-01-16T07:34:47.701Z,44.06
2019-01-16T07:37:32.726Z,44.38
2019-01-16T07:40:08.532Z,43.65
2019-01-16T07:42:50.329Z,43.14
2019-01-16T07:45:20.381Z,44.75
2019-01-16T07:47:53.165Z,44.38
2019-01-16T07:50:26.131Z,44.08
2019-01-16T07:53:05.083Z,44.11
2019-01-16T07:55:40.511Z,43.84
2019-01-16T07:58:13.207Z,43.86
2019-01-16T08:00:59.366Z,44.09
2019-01-16T08:03:45.378Z,44.41
2019-01-16T08:06:15.333Z,42.97
2019-01-16T08:08:45.247Z,42.52
2019-01-16T08:11:38.731Z,41.96
2019-01-16T08:14:08.629Z,42.85
2019-01-16T08:16:50.159Z,42.08
2019-01-16T08:19:36.199Z,42.83
2019-01-16T08:22:06.147Z,42.08
2019-01-16T08:24:54.167Z,42.29
2019-01-16T08:27:29.698Z,42.46
2019-01-16T08:29:59.613Z,41.70
2019-01-16T08:32:29.526Z,41.56
2019-01-16T08:34:59.472Z,41.93
2019-01-16T08:37:35.359Z,41.93
2019-01-16T08:40:16.086Z,42.08
2019-01-16T08:43:00.881Z,41.52
2019-01-16T08:45:48.720Z,40.92
2019-01-16T08:48:34.635Z,40.62
2019-01-16T08:51:22.577Z,40.98
2019-01-16T08:53:55.076Z,41.13
2019-01-16T08:56:27.728Z,40.30
2019-01-16T08:58:57.646Z,40.41
2019-01-16T09:01:32.608Z,40.00
2019-01-16T09:04:15.113Z,39.85
2019-01-16T09:06:45.023Z,39.68
2019-01-16T09:09:30.849Z,40.07
2019-01-16T09:12:00.766Z,40.18
2019-01-16T09:14:46.636Z,39.13
2019-01-16T09:17:22.294Z,39.91
2019-01-16T09:19:52.247Z,39.97
2019-01-16T09:22:38.525Z,39.67
2019-01-16T09:25:08.545Z,40.58
2019-01-16T09:27:53.597Z,40.34
2019-01-16T09:30:39.512Z,40.25
2019-01-16T09:33:25.702Z,39.82
2019-01-16T09:36:04.481Z,39.88
2019-01-16T09:38:43.130Z,39.66
2019-01-16T09:41:21.806Z,38.44
2019-01-16T09:44:07.981Z,38.84
2019-01-16T09:46:53.969Z,38.80
2019-01-16T09:49:24.155Z,39.31
2019-01-16T09:51:54.067Z,38.63
2019-01-16T09:54:40.105Z,37.87
2019-01-16T09:57:26.169Z,38.87
2019-01-16T09:59:56.125Z,38.19
2019-01-16T10:02:31.960Z,37.36
2019-01-16T10:05:17.845Z,37.40
2019-01-16T10:08:02.323Z,37.07
2019-01-16T10:10:34.851Z,37.79
2019-01-16T10:13:13.821Z,37.68
2019-01-16T10:15:58.387Z,38.04
2019-01-16T10:18:28.320Z,37.74
2019-01-16T10:21:04.439Z,38.52
2019-01-16T10:23:37.174Z,38.57
2019-01-16T10:26:10.142Z,38.11
2019-01-16T10:28:58.206Z,38.54
2019-01-16T10:31:30.828Z,38.31
2019-01-16T10:34:09.508Z,38.62
2019-01-16T10:36:48.398Z,38.78
2019-01-16T10:39:24.087Z,38.78
2019-01-16T10:41:56.467Z,39.58
2019-01-16T10:44:32.101Z,38.46
2019-01-16T10:47:02.049Z,38.00
2019-01-16T10:49:32.028Z,37.80
2019-01-16T10:52:02.013Z,37.19
2019-01-16T10:54:35.104Z,38.05
2019-01-16T10:57:13.902Z,38.49
2019-01-16T10:59:43.853Z,38.19
2019-01-16T11:02:28.979Z,38.12
2019-01-16T11:05:07.781Z,38.04
2019-01-16T11:07:37.705Z,38.36
2019-01-16T11:10:10.913Z,38.36
2019-01-16T11:12:46.413Z,37.30
2019-01-16T11:15:30.957Z,38.16
2019-01-16T11:18:03.643Z,38.05
2019-01-16T11:20:36.285Z,38.67
2019-01-16T11:23:12.072Z,37.92
2019-01-16T11:25:47.725Z,37.82
2019-01-16T11:28:18.620Z,37.56
2019-01-16T11:31:04.641Z,37.17
2019-01-16T11:33:40.415Z,37.17
2019-01-16T11:36:26.148Z,38.18
2019-01-16T11:39:12.061Z,38.18
2019-01-16T11:41:44.800Z,38.06
2019-01-16T11:44:14.802Z,37.68
2019-01-16T11:46:44.757Z,37.28
2019-01-16T11:49:23.521Z,37.81
2019-01-16T11:52:05.253Z,37.81
2019-01-16T11:54:41.207Z,38.13
2019-01-16T11:57:22.937Z,38.13
2019-01-16T12:00:01.704Z,38.36
2019-01-16T12:02:40.913Z,38.53
2019-01-16T12:05:20.869Z,37.51
2019-01-16T12:08:06.842Z,38.28
2019-01-16T12:10:45.754Z,38.22
2019-01-16T12:13:21.612Z,37.97
2019-01-16T12:15:54.564Z,37.73
2019-01-16T12:18:33.186Z,37.73
2019-01-16T12:21:05.839Z,38.39
2019-01-16T12:23:38.717Z,38.39
2019-01-16T12:26:14.172Z,38.36
2019-01-16T12:28:49.972Z,38.64
2019-01-16T12:31:20.042Z,38.18
2019-01-16T12:34:06.280Z,38.91
2019-01-16T12:36:42.433Z,38.91
2019-01-16T12:39:28.343Z,38.50
2019-01-16T12:41:59.627Z,38.45
2019-01-16T12:44:35.787Z,38.45
2019-01-16T12:47:17.816Z,38.64
2019-01-16T12:49:56.715Z,38.64
2019-01-16T12:52:26.699Z,37.86
2019-01-16T12:55:13.046Z,37.81
2019-01-16T12:57:54.833Z,38.11
2019-01-16T13:00:30.268Z,37.10
2019-01-16T13:03:02.919Z,37.10
2019-01-16T13:05:47.590Z,38.41
2019-01-16T13:08:23.480Z,38.41
2019-01-16T13:11:05.439Z,38.20
2019-01-16T13:13:50.014Z,38.20
2019-01-16T13:16:28.416Z,38.56
2019-01-16T13:19:07.256Z,38.56
2019-01-16T13:21:40.004Z,38.34
2019-01-16T13:24:11.887Z,38.34
2019-01-16T13:26:57.835Z,38.42
2019-01-16T13:29:27.879Z,38.42
2019-01-16T13:32:03.948Z,39.46
2019-01-16T13:34:46.019Z,38.54
2019-01-16T13:37:24.697Z,38.54
2019-01-16T13:39:57.793Z,39.48
2019-01-16T13:42:33.668Z,39.82
2019-01-16T13:45:19.729Z,39.82
2019-01-16T13:48:06.031Z,39.15
2019-01-16T13:50:38.926Z,39.19
2019-01-16T13:53:14.724Z,39.19
2019-01-16T13:55:44.785Z,39.10
2019-01-16T13:58:17.440Z,39.10
2019-01-16T14:00:50.345Z,39.40
2019-01-16T14:03:23.138Z,39.95
2019-01-16T14:06:08.093Z,40.13
2019-01-16T14:08:54.133Z,40.62
2019-01-16T14:11:24.225Z,40.62
2019-01-16T14:14:08.898Z,39.90
2019-01-16T14:16:50.811Z,40.11
2019-01-16T14:19:23.234Z,40.01
2019-01-16T14:22:05.345Z,40.01
2019-01-16T14:24:35.328Z,40.39
2019-01-16T14:27:07.839Z,39.66
2019-01-16T14:29:47.098Z,40.56
2019-01-16T14:32:23.172Z,40.10
2019-01-16T14:34:55.821Z,40.10
2019-01-16T14:37:25.880Z,40.10
2019-01-16T14:39:55.930Z,39.83
2019-01-16T14:42:42.285Z,39.63
2019-01-16T14:45:21.558Z,38.97
2019-01-16T14:47:51.652Z,39.62
2019-01-16T14:50:21.708Z,40.21
2019-01-16T14:53:06.922Z,40.26
2019-01-16T14:55:39.967Z,40.37
2019-01-16T14:58:25.994Z,41.23
2019-01-16T15:01:11.996Z,40.68
2019-01-16T15:03:58.235Z,41.88
2019-01-16T15:06:34.294Z,41.93
2019-01-16T15:09:20.623Z,41.52
2019-01-16T15:11:56.503Z,41.57
2019-01-16T15:14:26.601Z,41.69
2019-01-16T15:16:59.350Z,41.27
2019-01-16T15:19:32.138Z,42.24
2019-01-16T15:22:18.401Z,40.24
2019-01-16T15:24:48.489Z,41.12
2019-01-16T15:27:27.525Z,41.61
2019-01-16T15:30:00.316Z,42.57
2019-01-16T15:32:33.365Z,42.46
2019-01-16T15:35:09.481Z,42.55
2019-01-16T15:37:42.537Z,42.66
2019-01-16T15:40:14.036Z,42.42
2019-01-16T15:42:59.030Z,42.50
2019-01-16T15:45:31.967Z,41.55
2019-01-16T15:48:20.076Z,42.14
2019-01-16T15:50:53.165Z,42.69
2019-01-16T15:53:25.975Z,43.08
2019-01-16T15:56:11.050Z,43.12
2019-01-16T15:58:53.033Z,44.14
2019-01-16T16:01:23.135Z,43.66
2019-01-16T16:03:53.193Z,42.56
2019-01-16T16:06:39.445Z,43.33
2019-01-16T16:09:25.092Z,43.42
2019-01-16T16:12:13.113Z,43.56
2019-01-16T16:14:51.901Z,41.99
2019-01-16T16:17:30.864Z,43.32
2019-01-16T16:20:17.097Z,42.70
2019-01-16T16:22:49.686Z,43.23
2019-01-16T16:25:35.726Z,44.58
2019-01-16T16:28:14.698Z,44.09
2019-01-16T16:30:47.848Z,43.73
2019-01-16T16:33:24.056Z,42.53
2019-01-16T16:36:05.950Z,43.37
2019-01-16T16:38:52.244Z,43.80
2019-01-16T16:41:37.929Z,44.05
2019-01-16T16:44:17.023Z,43.48
2019-01-16T16:47:01.944Z,43.26
2019-01-16T16:49:40.808Z,42.88
2019-01-16T16:52:10.866Z,43.62
2019-01-16T16:54:52.874Z,44.45
2019-01-16T16:57:39.194Z,43.29
2019-01-16T17:00:12.551Z,43.68
2019-01-16T17:03:00.495Z,41.52
2019-01-16T17:05:33.328Z,41.54
2019-01-16T17:08:03.381Z,41.31
2019-01-16T17:10:33.428Z,41.05
2019-01-16T17:13:03.528Z,41.18
2019-01-16T17:15:39.388Z,41.35
2019-01-16T17:18:14.959Z,40.61
2019-01-16T17:20:47.829Z,40.61
2019-01-16T17:23:35.627Z,40.96
2019-01-16T17:26:05.693Z,41.29
2019-01-16T17:28:35.750Z,41.67
2019-01-16T17:31:05.849Z,40.28
2019-01-16T17:33:35.907Z,42.08
2019-01-16T17:36:15.139Z,42.08
2019-01-16T17:38:50.930Z,42.47
2019-01-16T17:41:29.912Z,41.77
2019-01-16T17:44:08.661Z,42.93
2019-01-16T17:46:54.978Z,41.54
2019-01-16T17:49:34.044Z,41.54
2019-01-16T17:52:16.209Z,40.76
2019-01-16T17:54:46.284Z,41.65
2019-01-16T17:57:19.044Z,40.93
2019-01-16T17:59:51.880Z,40.74
2019-01-16T18:02:36.659Z,39.90
2019-01-16T18:05:09.766Z,39.90
2019-01-16T18:07:45.547Z,39.90
2019-01-16T18:10:33.548Z,41.18
2019-01-16T18:13:12.753Z,40.85
2019-01-16T18:15:58.915Z,41.06
2019-01-16T18:18:31.977Z,40.65
2019-01-16T18:21:10.895Z,40.78
2019-01-16T18:23:56.924Z,41.67
2019-01-16T18:26:33.025Z,40.93
2019-01-16T18:29:03.077Z,39.80
2019-01-16T18:31:33.154Z,40.32
2019-01-16T18:34:18.336Z,41.26
2019-01-16T18:36:57.030Z,41.18
2019-01-16T18:39:27.135Z,41.18
2019-01-16T18:41:57.200Z,41.04
2019-01-16T18:44:46.966Z,41.04
2019-01-16T18:47:32.723Z,41.26
2019-01-16T18:50:02.841Z,41.26
2019-01-16T18:52:51.739Z,40.68
2019-01-16T18:55:37.676Z,41.67
2019-01-16T18:58:25.540Z,41.67
2019-01-16T19:01:04.684Z,41.66
2019-01-16T19:03:37.843Z,40.82
2019-01-16T19:06:07.894Z,42.34
2019-01-16T19:08:43.752Z,43.95
2019-01-16T19:11:16.808Z,43.95
2019-01-16T19:13:49.367Z,41.19
2019-01-16T19:16:30.801Z,41.19
2019-01-16T19:19:06.477Z,41.63
2019-01-16T19:21:45.250Z,41.63
2019-01-16T19:24:18.167Z,43.94
2019-01-16T19:26:54.022Z,44.25
2019-01-16T19:29:24.117Z,43.68
2019-01-16T19:32:06.321Z,43.33
2019-01-16T19:34:52.460Z,42.15
2019-01-16T19:37:31.348Z,41.05
2019-01-16T19:40:13.420Z,41.85
2019-01-16T19:42:55.263Z,41.62
2019-01-16T19:45:41.051Z,40.25
2019-01-16T19:48:11.112Z,41.33
2019-01-16T19:50:41.171Z,41.64
2019-01-16T19:53:17.058Z,41.49
2019-01-16T19:55:55.835Z,41.06
2019-01-16T19:58:34.985Z,41.60
2019-01-16T20:01:05.038Z,40.33
2019-01-16T20:03:44.084Z,40.87
2019-01-16T20:06:35.070Z,39.70
2019-01-16T20:09:20.188Z,42.13
2019-01-16T20:11:50.251Z,41.87
2019-01-16T20:14:32.081Z,41.87
2019-01-16T20:17:00.953Z,41.32
2019-01-16T20:19:48.958Z,40.41
2019-01-16T20:22:19.020Z,40.08
2019-01-16T20:25:04.879Z,40.08
2019-01-16T20:27:43.488Z,39.80
2019-01-16T20:30:27.555Z,40.35
2019-01-16T20:33:12.420Z,39.60
2019-01-16T20:35:45.233Z,38.53
2019-01-16T20:38:24.333Z,39.10
2019-01-16T20:41:06.573Z,39.68
2019-01-16T20:43:54.671Z,39.68
2019-01-16T20:46:40.659Z,39.13
2019-01-16T20:49:25.634Z,39.18
2019-01-16T20:52:11.842Z,38.85
2019-01-16T20:54:54.046Z,39.02
2019-01-16T20:57:35.900Z,39.02
2019-01-16T21:00:23.848Z,38.33
2019-01-16T21:02:53.951Z,40.35
2019-01-16T21:05:38.902Z,40.97
2019-01-16T21:08:14.598Z,41.20
2019-01-16T21:10:53.695Z,40.34
2019-01-16T21:13:29.532Z,41.05
2019-01-16T21:15:59.584Z,39.80
2019-01-16T21:18:32.834Z,42.12
2019-01-16T21:21:05.630Z,48.57
2019-01-16T21:23:35.701Z,48.42
2019-01-16T21:26:20.677Z,49.02
2019-01-16T21:28:55.204Z,46.91
2019-01-16T21:31:25.295Z,46.56
2019-01-16T21:33:55.346Z,50.45
2019-01-16T21:36:31.597Z,53.13
2019-01-16T21:39:17.590Z,51.67
2019-01-16T21:41:47.682Z,50.15
2019-01-16T21:44:33.601Z,48.75
2019-01-16T21:47:03.617Z,50.59
2019-01-16T21:49:42.644Z,49.95
2019-01-16T21:52:12.750Z,48.85
2019-01-16T21:54:42.811Z,47.65
2019-01-16T21:57:28.821Z,48.15
2019-01-16T22:00:04.527Z,50.39
2019-01-16T22:02:40.432Z,47.57
2019-01-16T22:05:22.514Z,50.79
2019-01-16T22:08:01.036Z,48.50
2019-01-16T22:10:31.028Z,48.64
2019-01-16T22:13:12.800Z,48.13
2019-01-16T22:15:48.832Z,46.94
2019-01-16T22:18:24.873Z,46.09
2019-01-16T22:20:57.271Z,46.74
2019-01-16T22:23:27.186Z,47.58
2019-01-16T22:25:59.883Z,49.48
2019-01-16T22:28:38.704Z,48.99
2019-01-16T22:31:08.662Z,47.13
2019-01-16T22:33:44.015Z,46.47
2019-01-16T22:36:16.887Z,48.69
2019-01-16T22:38:52.897Z,50.10
2019-01-16T22:41:22.846Z,48.81
2019-01-16T22:43:52.772Z,47.95
2019-01-16T22:46:38.466Z,48.13
2019-01-16T22:49:17.092Z,47.51
2019-01-16T22:52:02.822Z,48.12
2019-01-16T22:54:35.493Z,48.14
2019-01-16T22:57:11.367Z,47.54
2019-01-16T22:59:41.282Z,48.88
2019-01-16T23:02:11.270Z,48.70
2019-01-16T23:04:53.058Z,48.29
2019-01-16T23:07:31.828Z,48.00
2019-01-16T23:10:07.266Z,48.03
2019-01-16T23:12:45.889Z,47.58
2019-01-16T23:15:31.846Z,48.77
2019-01-16T23:18:13.534Z,48.37
2019-01-16T23:20:52.220Z,47.34
2019-01-16T23:23:38.089Z,47.70
2019-01-16T23:26:08.189Z,47.48
2019-01-16T23:28:41.129Z,47.70
2019-01-16T23:31:27.350Z,47.38
2019-01-16T23:34:06.011Z,48.71
2019-01-16T23:36:53.780Z,48.18
2019-01-16T23:39:32.509Z,49.22
2019-01-16T23:42:02.456Z,48.57
2019-01-16T23:44:32.382Z,48.14
2019-01-16T23:47:07.811Z,49.67
2019-01-16T23:49:37.736Z,48.76
2019-01-16T23:52:07.660Z,48.65
2019-01-16T23:54:40.435Z,51.54
2019-01-16T23:57:10.423Z,53.06
2019-01-16T23:59:40.340Z,50.99
